Time;durP1;ratioP1;P1;durP2;ratioP2;P2;SDS_P1;SDS_P2;PMS_P1;PMS_P2;Temp;Humidity;BMP_temperature;BMP_pressure;BME280_temperature;BME280_humidity;BME280_pressure;Samples;Min_cycle;Max_cycle;Signal;HPM_P1;HPM_P2
2023/09/03 00:00:41;;;;;;;79.57;62.20;;;18.20;91.40;;;;;;4942975;28;20629;-77
2023/09/03 00:03:07;;;;;;;90.68;64.97;;;18.20;91.50;;;;;;4934473;28;20034;-78
2023/09/03 00:05:34;;;;;;;85.60;64.35;;;18.10;91.60;;;;;;4937155;28;20823;-77
2023/09/03 00:08:00;;;;;;;83.18;64.15;;;18.10;91.80;;;;;;4934924;28;20036;-76
2023/09/03 00:10:25;;;;;;;91.90;67.32;;;18.10;92.00;;;;;;4938460;28;20444;-76
2023/09/03 00:12:51;;;;;;;89.07;66.45;;;18.00;92.10;;;;;;4936504;28;20092;-76
2023/09/03 00:15:23;;;;;;;87.07;62.70;;;18.00;92.20;;;;;;4938354;28;20027;-77
2023/09/03 00:17:49;;;;;;;83.80;61.10;;;17.90;92.30;;;;;;4941375;28;20034;-77
2023/09/03 00:20:15;;;;;;;79.03;59.33;;;17.90;92.40;;;;;;4944987;28;20031;-76
2023/09/03 00:22:41;;;;;;;75.28;57.65;;;17.90;92.40;;;;;;4940191;28;20043;-76
2023/09/03 00:25:07;;;;;;;83.03;60.58;;;18.00;92.50;;;;;;4935414;28;20023;-78
2023/09/03 00:27:33;;;;;;;86.13;64.32;;;17.90;92.50;;;;;;4934648;28;20405;-76
2023/09/03 00:29:59;;;;;;;89.47;66.50;;;17.90;92.50;;;;;;4938113;28;20467;-77
2023/09/03 00:32:24;;;;;;;85.70;62.67;;;17.80;92.50;;;;;;4945696;28;20039;-77
2023/09/03 00:34:51;;;;;;;80.32;59.10;;;17.80;92.60;;;;;;4953000;28;20572;-77
2023/09/03 00:37:17;;;;;;;75.70;56.92;;;17.80;92.60;;;;;;4949298;28;20422;-77
2023/09/03 00:39:43;;;;;;;78.05;57.60;;;17.90;92.50;;;;;;4941656;28;20089;-76
2023/09/03 00:42:09;;;;;;;78.57;58.22;;;17.90;92.40;;;;;;4942818;28;20055;-76
2023/09/03 00:44:34;;;;;;;81.25;60.22;;;17.80;92.20;;;;;;4939829;28;20908;-78
2023/09/03 00:47:01;;;;;;;75.85;57.85;;;17.80;92.00;;;;;;4942837;28;20034;-77
2023/09/03 00:49:27;;;;;;;77.78;57.45;;;17.80;91.90;;;;;;4957818;28;20023;-77
2023/09/03 00:51:54;;;;;;;75.20;56.65;;;17.80;91.80;;;;;;4952442;28;20045;-79
2023/09/03 00:54:23;;;;;;;75.75;56.50;;;17.80;91.70;;;;;;4939900;28;20047;-79
2023/09/03 00:56:53;;;;;;;78.20;59.45;;;17.70;91.70;;;;;;4936392;28;20028;-79
2023/09/03 00:59:21;;;;;;;72.32;56.80;;;17.70;91.70;;;;;;4939717;28;20488;-76
2023/09/03 01:01:49;;;;;;;75.28;57.65;;;17.70;91.80;;;;;;4939360;28;20038;-78
2023/09/03 01:04:14;;;;;;;77.57;57.35;;;17.70;91.90;;;;;;4941973;28;20027;-79
2023/09/03 01:06:41;;;;;;;78.22;61.13;;;17.70;91.90;;;;;;4934376;28;20753;-76
2023/09/03 01:09:06;;;;;;;77.05;58.78;;;17.70;91.90;;;;;;4939534;28;20027;-77
2023/09/03 01:11:41;;;;;;;82.80;60.92;;;17.70;92.00;;;;;;4939898;28;20039;-78
2023/09/03 01:14:56;;;;;;;85.65;62.40;;;17.70;92.10;;;;;;4939417;28;20042;-78
2023/09/03 01:18:01;;;;;;;87.25;60.03;;;17.60;92.20;;;;;;4944807;28;20059;-76
2023/09/03 01:20:28;;;;;;;77.30;57.53;;;17.60;92.30;;;;;;4936873;28;20027;-76
2023/09/03 01:23:16;;;;;;;81.43;59.85;;;17.60;92.40;;;;;;4942380;28;20038;-76
2023/09/03 01:26:08;;;;;;;87.50;63.50;;;17.60;92.50;;;;;;4933833;29;20031;-78
2023/09/03 01:28:38;;;;;;;85.10;62.88;;;17.60;92.50;;;;;;4940780;28;20043;-78
2023/09/03 01:31:11;;;;;;;89.32;61.05;;;17.50;92.60;;;;;;4937561;28;20092;-76
2023/09/03 01:33:40;;;;;;;84.72;61.42;;;17.50;92.60;;;;;;4936093;28;20043;-76
2023/09/03 01:36:09;;;;;;;90.10;64.57;;;17.50;92.60;;;;;;4935939;28;20031;-79
2023/09/03 01:38:35;;;;;;;80.93;59.35;;;17.50;92.70;;;;;;4936327;28;20488;-77
2023/09/03 01:41:02;;;;;;;90.97;62.50;;;17.50;92.80;;;;;;4937302;28;20055;-76
2023/09/03 01:43:27;;;;;;;91.28;63.50;;;17.50;92.80;;;;;;4935379;28;20689;-77
2023/09/03 01:46:19;;;;;;;79.53;58.35;;;17.50;92.70;;;;;;4940188;28;20023;-77
2023/09/03 01:49:10;;;;;;;83.97;60.58;;;17.40;92.70;;;;;;4939160;28;20051;-77
2023/09/03 01:51:57;;;;;;;80.68;60.00;;;17.40;92.80;;;;;;4937661;28;20727;-78
2023/09/03 01:54:27;;;;;;;84.20;60.33;;;17.40;92.90;;;;;;4936587;28;20504;-77
2023/09/03 01:57:01;;;;;;;80.45;57.40;;;17.30;92.90;;;;;;4936395;28;20038;-77
2023/09/03 01:59:35;;;;;;;;;;;17.40;93.00;;;;;;4938032;28;20031;-77
2023/09/03 02:02:01;;;;;;;74.05;52.35;;;17.30;93.00;;;;;;4939220;28;20324;-77
2023/09/03 02:04:27;;;;;;;76.10;55.33;;;17.30;93.00;;;;;;4941358;28;20038;-77
2023/09/03 02:06:53;;;;;;;77.20;54.15;;;17.30;93.00;;;;;;4933711;28;20024;-77
2023/09/03 02:09:18;;;;;;;73.90;54.28;;;17.30;93.00;;;;;;4938669;28;20122;-80
2023/09/03 02:11:44;;;;;;;72.53;52.95;;;17.30;93.00;;;;;;4940353;28;20098;-77
2023/09/03 02:14:10;;;;;;;68.95;52.40;;;17.30;93.00;;;;;;4937086;28;20093;-77
2023/09/03 02:16:35;;;;;;;63.30;48.65;;;17.30;92.80;;;;;;4960715;28;20467;-78
2023/09/03 02:19:01;;;;;;;65.80;50.13;;;17.20;92.80;;;;;;4938370;28;20031;-79
2023/09/03 02:21:27;;;;;;;67.53;50.70;;;17.20;92.80;;;;;;4939029;28;20800;-77
2023/09/03 02:23:53;;;;;;;63.60;49.63;;;17.10;92.80;;;;;;4936528;28;20050;-77
2023/09/03 02:26:18;;;;;;;71.25;53.53;;;17.10;92.70;;;;;;5031992;28;20034;-78
2023/09/03 02:28:44;;;;;;;68.15;51.70;;;17.10;92.60;;;;;;4956276;28;20035;-78
2023/09/03 02:31:11;;;;;;;68.50;51.67;;;17.10;92.50;;;;;;4959233;28;20041;-77
2023/09/03 02:33:37;;;;;;;76.32;55.03;;;17.10;92.50;;;;;;4961696;28;20035;-77
2023/09/03 02:36:03;;;;;;;72.45;55.22;;;17.10;92.50;;;;;;4959422;28;20033;-78
2023/09/03 02:38:28;;;;;;;76.93;56.97;;;17.10;92.50;;;;;;4957513;28;20042;-76
2023/09/03 02:40:54;;;;;;;67.68;51.28;;;17.10;92.20;;;;;;4960084;28;20786;-76
2023/09/03 02:43:20;;;;;;;67.97;51.13;;;17.00;92.00;;;;;;4961607;28;20150;-77
2023/09/03 02:45:45;;;;;;;64.97;50.88;;;17.00;92.00;;;;;;4961942;28;20122;-76
2023/09/03 02:48:11;;;;;;;75.55;56.15;;;17.00;92.00;;;;;;4953547;28;20073;-77
2023/09/03 02:50:37;;;;;;;74.28;54.00;;;17.00;92.10;;;;;;4961744;28;20030;-77
2023/09/03 02:53:07;;;;;;;73.25;54.63;;;17.00;92.10;;;;;;4958554;28;20069;-77
2023/09/03 02:55:33;;;;;;;71.63;52.65;;;17.00;92.10;;;;;;4958588;28;20039;-77
2023/09/03 02:57:59;;;;;;;70.20;52.42;;;17.00;92.20;;;;;;4962400;28;20035;-76
2023/09/03 03:00:24;;;;;;;69.10;51.45;;;17.00;92.30;;;;;;4959254;28;20039;-76
2023/09/03 03:02:52;;;;;;;74.13;55.50;;;16.90;92.40;;;;;;4952436;28;20474;-77
2023/09/03 03:05:18;;;;;;;70.78;54.22;;;16.90;92.40;;;;;;4959596;28;20108;-76
2023/09/03 03:07:43;;;;;;;68.85;51.50;;;16.90;92.30;;;;;;4967869;28;20114;-77
2023/09/03 03:10:10;;;;;;;70.90;53.05;;;16.80;92.40;;;;;;4961941;28;20066;-76
2023/09/03 03:12:36;;;;;;;74.45;56.28;;;16.80;92.50;;;;;;4954471;28;20031;-78
2023/09/03 03:15:02;;;;;;;73.45;52.97;;;16.80;92.50;;;;;;4962876;28;20395;-77
2023/09/03 03:17:28;;;;;;;70.68;53.25;;;16.80;92.50;;;;;;4960250;28;20033;-75
2023/09/03 03:19:54;;;;;;;69.82;53.20;;;16.80;92.60;;;;;;4964696;28;20031;-76
2023/09/03 03:22:19;;;;;;;72.65;55.10;;;16.80;92.40;;;;;;4949517;28;20031;-78
2023/09/03 03:24:45;;;;;;;73.85;56.28;;;16.80;92.40;;;;;;4936531;28;20030;-77
2023/09/03 03:27:11;;;;;;;72.22;54.75;;;16.80;92.40;;;;;;4942323;28;20073;-77
2023/09/03 03:29:36;;;;;;;74.72;54.83;;;16.80;92.50;;;;;;4938709;28;20712;-75
2023/09/03 03:32:04;;;;;;;72.57;53.50;;;16.80;92.50;;;;;;4944430;28;21058;-77
2023/09/03 03:34:30;;;;;;;72.15;54.55;;;16.80;92.50;;;;;;4955851;28;20076;-76
2023/09/03 03:36:56;;;;;;;76.53;56.17;;;16.80;92.60;;;;;;4966694;28;20066;-77
2023/09/03 03:39:22;;;;;;;81.72;58.65;;;16.70;92.70;;;;;;4965969;28;20035;-74
2023/09/03 03:41:47;;;;;;;86.18;60.83;;;16.70;92.90;;;;;;4968724;28;20023;-77
2023/09/03 03:44:13;;;;;;;81.40;58.50;;;16.60;92.90;;;;;;4965422;28;20031;-77
2023/09/03 03:46:39;;;;;;;85.13;59.78;;;16.60;93.10;;;;;;4971992;28;20034;-78
2023/09/03 03:49:04;;;;;;;83.70;57.58;;;16.60;93.20;;;;;;4969365;28;20541;-76
2023/09/03 03:51:30;;;;;;;71.72;52.97;;;16.60;93.30;;;;;;4958168;28;20022;-76
2023/09/03 03:53:58;;;;;;;76.90;54.70;;;16.60;93.30;;;;;;4960627;28;20070;-77
2023/09/03 03:56:24;;;;;;;78.78;56.85;;;16.60;93.40;;;;;;4962450;28;20027;-76
2023/09/03 03:58:49;;;;;;;79.15;58.35;;;16.60;93.40;;;;;;4957415;28;20042;-76
2023/09/03 04:01:18;;;;;;;73.72;55.40;;;16.50;93.30;;;;;;4955765;28;20134;-76
2023/09/03 04:03:46;;;;;;;74.63;53.70;;;16.40;93.40;;;;;;4957912;28;20612;-75
2023/09/03 04:06:11;;;;;;;77.93;54.70;;;16.40;93.50;;;;;;4970271;28;20054;-76
2023/09/03 04:08:38;;;;;;;72.57;51.78;;;16.40;93.50;;;;;;4962948;28;20066;-76
2023/09/03 04:11:08;;;;;;;73.00;54.05;;;16.40;93.50;;;;;;4962794;28;20033;-77
2023/09/03 04:13:34;;;;;;;69.82;51.40;;;16.40;93.60;;;;;;4958853;28;20035;-77
2023/09/03 04:16:05;;;;;;;72.80;53.47;;;16.40;93.60;;;;;;4965704;28;20035;-77
2023/09/03 04:18:30;;;;;;;66.80;49.72;;;16.40;93.60;;;;;;4957907;28;20053;-75
2023/09/03 04:20:57;;;;;;;71.50;51.50;;;16.40;93.70;;;;;;4963694;28;20030;-76
2023/09/03 04:23:24;;;;;;;68.95;49.67;;;16.50;93.70;;;;;;4959118;28;20031;-76
2023/09/03 04:25:51;;;;;;;71.93;53.10;;;16.40;93.70;;;;;;4954637;28;20061;-77
2023/09/03 04:28:20;;;;;;;71.53;52.80;;;16.40;93.70;;;;;;4958297;28;20488;-76
2023/09/03 04:30:46;;;;;;;69.63;53.78;;;16.40;93.50;;;;;;4959029;28;20038;-75
2023/09/03 04:33:12;;;;;;;68.95;51.33;;;16.40;93.50;;;;;;4961848;28;20552;-76
2023/09/03 04:35:38;;;;;;;66.60;51.03;;;16.40;93.40;;;;;;4959813;28;20096;-76
2023/09/03 04:38:04;;;;;;;62.72;49.60;;;16.30;93.30;;;;;;4961190;28;20045;-77
2023/09/03 04:40:34;;;;;;;64.13;48.55;;;16.30;93.10;;;;;;4962761;28;20054;-74
2023/09/03 04:43:00;;;;;;;64.00;48.42;;;16.20;93.00;;;;;;4956635;28;20062;-79
2023/09/03 04:45:26;;;;;;;59.53;46.15;;;16.30;93.00;;;;;;4955907;28;20042;-75
2023/09/03 04:47:52;;;;;;;58.53;46.95;;;16.20;93.00;;;;;;4953187;28;20469;-76
2023/09/03 04:50:18;;;;;;;59.45;44.85;;;16.30;93.00;;;;;;4956067;28;20070;-78
2023/09/03 04:52:45;;;;;;;60.97;47.88;;;16.20;93.10;;;;;;4954525;28;20470;-76
2023/09/03 04:55:11;;;;;;;62.13;48.95;;;16.30;93.10;;;;;;4959048;28;20428;-77
2023/09/03 04:57:37;;;;;;;61.85;49.05;;;16.30;93.10;;;;;;4955192;28;20474;-76
2023/09/03 05:00:04;;;;;;;62.15;48.55;;;16.30;93.00;;;;;;4955706;28;20042;-76
2023/09/03 05:02:30;;;;;;;60.17;48.13;;;16.20;92.90;;;;;;4954305;28;20500;-75
2023/09/03 05:04:55;;;;;;;55.83;45.00;;;16.20;92.90;;;;;;4957321;28;20113;-78
2023/09/03 05:07:21;;;;;;;55.65;43.30;;;16.20;92.80;;;;;;4954543;28;20249;-76
2023/09/03 05:09:47;;;;;;;56.45;43.92;;;16.20;92.80;;;;;;4970689;28;20393;-78
2023/09/03 05:12:12;;;;;;;57.28;46.85;;;16.20;92.90;;;;;;4959071;28;20031;-76
2023/09/03 05:14:38;;;;;;;57.03;44.90;;;16.20;92.80;;;;;;4956634;28;20469;-77
2023/09/03 05:17:04;;;;;;;53.55;42.42;;;16.20;92.70;;;;;;4967134;28;20504;-76
2023/09/03 05:19:29;;;;;;;56.35;43.92;;;16.20;92.60;;;;;;4960609;28;20038;-76
2023/09/03 05:21:55;;;;;;;64.03;48.35;;;16.20;92.50;;;;;;4958756;28;20035;-77
2023/09/03 05:24:20;;;;;;;60.83;47.25;;;16.10;92.40;;;;;;4955466;28;20046;-74
2023/09/03 05:26:48;;;;;;;55.58;45.25;;;16.20;92.30;;;;;;4952666;28;20039;-76
2023/09/03 05:29:14;;;;;;;54.33;44.20;;;16.20;92.00;;;;;;4959833;28;20023;-78
2023/09/03 05:31:41;;;;;;;56.83;44.45;;;16.30;92.00;;;;;;4956774;28;20023;-76
2023/09/03 05:34:06;;;;;;;54.53;46.65;;;16.30;92.00;;;;;;4941880;28;20058;-77
2023/09/03 05:36:32;;;;;;;57.90;45.35;;;16.30;92.10;;;;;;4935849;28;20874;-76
2023/09/03 05:38:58;;;;;;;56.65;44.55;;;16.40;92.10;;;;;;4949777;28;20509;-77
2023/09/03 05:41:24;;;;;;;54.03;43.33;;;16.50;92.20;;;;;;4942425;28;20023;-77
2023/09/03 05:43:53;;;;;;;53.97;42.75;;;16.50;92.20;;;;;;4940042;28;20542;-76
2023/09/03 05:46:19;;;;;;;57.28;46.20;;;16.50;92.20;;;;;;4934258;28;20061;-77
2023/09/03 05:48:49;;;;;;;58.40;47.40;;;16.60;92.10;;;;;;4983084;28;20396;-77
2023/09/03 05:51:15;;;;;;;63.67;50.90;;;16.60;91.90;;;;;;4937606;28;20393;-77
2023/09/03 05:53:41;;;;;;;59.28;50.03;;;16.60;91.90;;;;;;4955861;28;20045;-76
2023/09/03 05:56:09;;;;;;;61.13;50.05;;;16.60;92.00;;;;;;4962365;28;20358;-74
2023/09/03 05:58:34;;;;;;;65.97;52.40;;;16.60;92.00;;;;;;4962979;28;20047;-76
2023/09/03 06:01:07;;;;;;;61.38;47.65;;;16.60;92.10;;;;;;4960444;28;20027;-78
2023/09/03 06:03:33;;;;;;;62.00;51.50;;;16.60;92.10;;;;;;4960721;28;20054;-77
2023/09/03 06:06:04;;;;;;;60.35;48.42;;;16.80;92.20;;;;;;4968782;28;20039;-77
2023/09/03 06:08:30;;;;;;;63.03;48.92;;;16.80;92.10;;;;;;4939220;28;20039;-75
2023/09/03 06:10:56;;;;;;;61.10;49.25;;;16.80;92.00;;;;;;4940296;28;20026;-76
2023/09/03 06:13:26;;;;;;;60.70;47.20;;;16.80;91.90;;;;;;4940057;28;20039;-78
2023/09/03 06:15:52;;;;;;;58.20;48.72;;;16.90;91.90;;;;;;4961237;28;20046;-76
2023/09/03 06:18:17;;;;;;;63.85;50.13;;;17.00;91.80;;;;;;4935348;28;20062;-76
2023/09/03 06:20:43;;;;;;;63.75;51.70;;;17.00;91.30;;;;;;4936238;28;20125;-76
2023/09/03 06:23:09;;;;;;;65.45;49.50;;;17.00;91.40;;;;;;4956794;28;20673;-75
2023/09/03 06:25:35;;;;;;;57.67;48.92;;;17.00;91.40;;;;;;4954451;28;20572;-77
2023/09/03 06:28:01;;;;;;;58.80;48.35;;;17.00;91.50;;;;;;4957534;28;20051;-77
2023/09/03 06:30:27;;;;;;;56.88;47.15;;;17.10;91.70;;;;;;4959822;28;20031;-76
2023/09/03 06:32:52;;;;;;;59.35;47.78;;;17.20;91.60;;;;;;4960721;28;20172;-76
2023/09/03 06:35:18;;;;;;;59.78;47.88;;;17.30;91.50;;;;;;4956437;28;20054;-78
2023/09/03 06:37:44;;;;;;;57.80;49.05;;;17.50;91.50;;;;;;4958301;28;20050;-78
2023/09/03 06:40:13;;;;;;;61.45;52.15;;;17.60;91.30;;;;;;4961093;28;20042;-77
2023/09/03 06:42:38;;;;;;;58.22;48.22;;;17.60;91.00;;;;;;4961646;28;20031;-76
2023/09/03 06:45:05;;;;;;;60.25;49.15;;;17.60;90.60;;;;;;4963163;28;20423;-77
2023/09/03 06:47:30;;;;;;;61.75;49.90;;;17.60;90.50;;;;;;4956661;28;20451;-76
2023/09/03 06:49:56;;;;;;;62.88;51.03;;;17.60;90.80;;;;;;4963126;28;20043;-76
2023/09/03 06:52:23;;;;;;;61.60;51.70;;;17.60;90.50;;;;;;4959983;28;20533;-79
2023/09/03 06:54:49;;;;;;;62.80;51.25;;;17.70;90.50;;;;;;4959871;28;20133;-77
2023/09/03 06:57:15;;;;;;;61.42;51.65;;;17.70;90.50;;;;;;4959831;28;20062;-75
2023/09/03 06:59:41;;;;;;;65.18;52.70;;;17.80;90.60;;;;;;4955332;28;20047;-76
2023/09/03 07:02:07;;;;;;;58.95;49.45;;;17.90;90.50;;;;;;4963821;28;20496;-77
2023/09/03 07:04:35;;;;;;;60.95;49.83;;;17.90;90.40;;;;;;4964124;28;20540;-78
2023/09/03 07:07:04;;;;;;;60.42;49.92;;;18.10;90.60;;;;;;4958796;28;20039;-78
2023/09/03 07:09:32;;;;;;;62.17;51.33;;;18.10;90.20;;;;;;4953504;28;20035;-76
2023/09/03 07:11:59;;;;;;;59.97;50.50;;;18.10;90.20;;;;;;4955698;28;20069;-75
2023/09/03 07:14:25;;;;;;;60.63;50.90;;;18.20;90.40;;;;;;4960516;28;20064;-74
2023/09/03 07:16:51;;;;;;;60.75;50.03;;;18.40;90.40;;;;;;4957490;28;20058;-73
2023/09/03 07:19:17;;;;;;;56.35;48.05;;;18.50;90.10;;;;;;4955597;28;20050;-74
2023/09/03 07:21:43;;;;;;;60.85;50.75;;;18.60;89.60;;;;;;4952405;28;20026;-77
2023/09/03 07:24:08;;;;;;;59.33;50.78;;;18.60;89.20;;;;;;4957203;28;20110;-75
2023/09/03 07:26:34;;;;;;;58.10;49.72;;;18.70;89.00;;;;;;4955971;28;20420;-76
2023/09/03 07:29:00;;;;;;;61.67;50.35;;;18.80;88.70;;;;;;4956749;28;20533;-75
2023/09/03 07:31:25;;;;;;;57.08;49.05;;;18.80;88.60;;;;;;4955877;28;20035;-74
2023/09/03 07:33:51;;;;;;;62.75;51.17;;;18.80;88.60;;;;;;4959138;28;20042;-75
2023/09/03 07:36:17;;;;;;;57.80;49.33;;;18.90;88.60;;;;;;4952915;28;20813;-74
2023/09/03 07:38:42;;;;;;;54.92;46.75;;;19.00;88.60;;;;;;4957745;28;20755;-73
2023/09/03 07:41:08;;;;;;;55.95;46.38;;;19.10;88.10;;;;;;4959011;28;20027;-73
2023/09/03 07:43:35;;;;;;;56.58;48.90;;;19.10;87.70;;;;;;4937983;28;20039;-74
2023/09/03 07:46:00;;;;;;;59.58;48.97;;;19.10;87.90;;;;;;4949625;28;20795;-74
2023/09/03 07:48:26;;;;;;;53.20;47.35;;;19.40;87.70;;;;;;4951458;28;20129;-73
2023/09/03 07:50:52;;;;;;;56.83;48.58;;;19.50;87.10;;;;;;4943162;28;20054;-76
2023/09/03 07:53:18;;;;;;;57.42;48.28;;;19.40;87.10;;;;;;4939002;28;20050;-75
2023/09/03 07:55:44;;;;;;;59.72;47.85;;;19.50;87.30;;;;;;4936288;28;20019;-73
2023/09/03 07:58:10;;;;;;;56.88;47.53;;;19.40;87.40;;;;;;4940092;28;20043;-72
2023/09/03 08:00:38;;;;;;;54.20;47.20;;;19.60;88.10;;;;;;4939217;28;20691;-74
2023/09/03 08:03:03;;;;;;;56.90;48.30;;;19.70;86.90;;;;;;4954859;28;20132;-75
2023/09/03 08:05:29;;;;;;;57.78;49.28;;;19.60;87.20;;;;;;4940062;28;20118;-76
2023/09/03 08:07:55;;;;;;;61.58;48.53;;;19.90;87.10;;;;;;4940930;28;20050;-76
2023/09/03 08:10:21;;;;;;;55.60;46.05;;;20.10;86.20;;;;;;4937616;28;20038;-75
2023/09/03 08:12:46;;;;;;;59.90;48.90;;;20.30;85.50;;;;;;4937257;28;20036;-76
2023/09/03 08:15:13;;;;;;;54.70;46.60;;;20.60;86.10;;;;;;4942782;28;20121;-76
2023/09/03 08:17:39;;;;;;;56.13;47.00;;;21.00;84.50;;;;;;4938255;28;20047;-75
2023/09/03 08:20:05;;;;;;;54.13;45.28;;;21.10;83.30;;;;;;4939480;28;21665;-76
2023/09/03 08:22:31;;;;;;;56.60;45.25;;;21.10;82.80;;;;;;4938991;28;20133;-75
2023/09/03 08:24:57;;;;;;;56.88;46.05;;;21.30;83.20;;;;;;4941337;28;20432;-74
2023/09/03 08:27:22;;;;;;;57.00;44.70;;;21.50;81.70;;;;;;4943989;28;20050;-74
2023/09/03 08:29:48;;;;;;;59.83;45.75;;;21.60;81.70;;;;;;4940760;28;20097;-76
2023/09/03 08:32:14;;;;;;;53.72;43.63;;;21.80;79.90;;;;;;4941137;28;20130;-73
2023/09/03 08:34:39;;;;;;;55.05;44.95;;;21.90;80.00;;;;;;4940382;28;20031;-74
2023/09/03 08:37:05;;;;;;;48.72;41.75;;;22.00;79.50;;;;;;4938115;28;20035;-75
2023/09/03 08:39:31;;;;;;;47.67;40.03;;;22.20;80.20;;;;;;4937796;28;20081;-76
2023/09/03 08:41:58;;;;;;;48.65;41.20;;;22.20;78.10;;;;;;4941158;28;20123;-74
2023/09/03 08:44:51;;;;;;;50.70;41.88;;;22.30;79.20;;;;;;4937591;28;20034;-77
2023/09/03 08:47:17;;;;;;;44.85;38.40;;;22.60;77.70;;;;;;4936066;28;20049;-74
2023/09/03 08:49:45;;;;;;;43.47;37.47;;;22.70;77.60;;;;;;4936026;28;20410;-76
2023/09/03 08:52:11;;;;;;;42.47;37.33;;;23.00;76.90;;;;;;4937699;28;20126;-74
2023/09/03 08:54:38;;;;;;;44.35;37.60;;;23.20;75.50;;;;;;4941185;28;20042;-75
2023/09/03 08:57:09;;;;;;;44.28;36.97;;;23.40;75.30;;;;;;4939246;28;20055;-74
2023/09/03 08:59:34;;;;;;;48.35;40.05;;;23.50;74.90;;;;;;5041518;28;20565;-75
2023/09/03 09:02:01;;;;;;;42.50;37.15;;;23.30;75.70;;;;;;4946275;28;20121;-74
2023/09/03 09:04:30;;;;;;;42.88;34.85;;;23.40;75.60;;;;;;4947464;28;20034;-76
2023/09/03 09:06:58;;;;;;;39.47;33.17;;;23.60;74.40;;;;;;4935799;28;20118;-76
2023/09/03 09:09:26;;;;;;;36.47;32.45;;;23.60;72.50;;;;;;4943297;28;20592;-74
2023/09/03 09:12:11;;;;;;;36.42;30.67;;;23.50;73.40;;;;;;4935028;28;20112;-75
2023/09/03 09:15:04;;;;;;;40.22;32.20;;;23.60;73.80;;;;;;4941810;28;20023;-75
2023/09/03 09:17:43;;;;;;;34.63;29.60;;;23.80;72.70;;;;;;4944795;28;20036;-75
2023/09/03 09:20:15;;;;;;;35.47;30.45;;;24.10;73.50;;;;;;4939097;28;20404;-76
2023/09/03 09:22:48;;;;;;;33.95;30.17;;;24.10;72.30;;;;;;4937014;28;20208;-76
2023/09/03 09:25:25;;;;;;;35.58;29.27;;;24.10;71.90;;;;;;4937653;28;20081;-72
2023/09/03 09:27:55;;;;;;;32.35;27.65;;;24.20;72.20;;;;;;4933888;28;20079;-75
2023/09/03 09:30:24;;;;;;;33.85;29.10;;;24.50;71.60;;;;;;4950524;28;20042;-77
2023/09/03 09:33:06;;;;;;;31.08;26.60;;;24.60;70.50;;;;;;4936332;28;20077;-77
2023/09/03 09:35:33;;;;;;;29.80;25.90;;;24.70;70.70;;;;;;4936802;28;20024;-75
2023/09/03 09:38:07;;;;;;;34.70;28.20;;;24.80;69.80;;;;;;4939802;28;20027;-73
2023/09/03 09:40:36;;;;;;;;;;;24.90;69.10;;;;;;4941652;28;20658;-75
2023/09/03 09:43:07;;;;;;;33.00;26.50;;;24.50;69.30;;;;;;4935819;28;19968;-73
2023/09/03 09:45:33;;;;;;;28.63;23.92;;;24.30;70.10;;;;;;4945373;28;20122;-76
2023/09/03 09:48:09;;;;;;;28.92;24.45;;;24.40;70.20;;;;;;4948045;28;20162;-75
2023/09/03 09:50:38;;;;;;;25.95;22.08;;;24.60;69.40;;;;;;4939834;28;20031;-75
2023/09/03 09:53:06;;;;;;;27.92;23.23;;;24.60;69.60;;;;;;4936958;28;20081;-75
2023/09/03 09:55:32;;;;;;;25.77;21.33;;;24.80;68.70;;;;;;4935866;28;20032;-76
2023/09/03 09:58:01;;;;;;;26.42;22.45;;;25.10;68.50;;;;;;4934549;28;20058;-75
2023/09/03 10:00:33;;;;;;;31.20;25.63;;;25.30;67.90;;;;;;4938395;28;20383;-76
2023/09/03 10:02:59;;;;;;;29.42;25.25;;;25.10;67.00;;;;;;4939595;28;20047;-74
2023/09/03 10:05:25;;;;;;;32.83;26.67;;;24.90;66.10;;;;;;4936810;28;20524;-75
2023/09/03 10:07:53;;;;;;;27.48;24.40;;;24.70;68.30;;;;;;4950028;28;20026;-74
2023/09/03 10:10:19;;;;;;;25.95;22.00;;;24.90;68.30;;;;;;4935576;28;20474;-75
2023/09/03 10:12:44;;;;;;;23.58;19.15;;;25.10;68.60;;;;;;4937834;28;20039;-76
2023/09/03 10:15:13;;;;;;;20.30;17.40;;;25.00;66.60;;;;;;4938762;28;20058;-75
2023/09/03 10:17:41;;;;;;;22.13;19.02;;;25.00;66.80;;;;;;4941272;28;20104;-78
2023/09/03 10:20:11;;;;;;;19.58;17.13;;;25.30;66.90;;;;;;4937131;28;20042;-76
2023/09/03 10:22:40;;;;;;;19.70;17.50;;;25.70;66.70;;;;;;4935649;28;20035;-74
2023/09/03 10:25:19;;;;;;;22.33;19.35;;;25.80;66.10;;;;;;4937845;28;20547;-76
2023/09/03 10:27:50;;;;;;;19.70;17.40;;;25.90;65.40;;;;;;4934406;28;20043;-75
2023/09/03 10:30:23;;;;;;;20.48;16.73;;;26.10;64.10;;;;;;4931811;28;20699;-75
2023/09/03 10:32:51;;;;;;;19.73;17.27;;;26.00;63.80;;;;;;4942334;28;20390;-78
2023/09/03 10:35:17;;;;;;;19.75;17.58;;;26.10;64.40;;;;;;4938080;28;20070;-77
2023/09/03 10:37:43;;;;;;;21.17;18.52;;;26.30;64.20;;;;;;4938616;28;20055;-77
2023/09/03 10:40:20;;;;;;;20.73;17.98;;;26.30;63.20;;;;;;4937985;28;20485;-75
2023/09/03 10:42:47;;;;;;;21.65;18.20;;;26.40;62.00;;;;;;4939041;28;20378;-75
2023/09/03 10:45:14;;;;;;;20.40;17.35;;;26.20;63.60;;;;;;4942706;28;20164;-76
2023/09/03 10:48:00;;;;;;;24.25;19.33;;;26.40;64.10;;;;;;4939469;28;20130;-75
2023/09/03 10:50:42;;;;;;;22.05;19.63;;;26.30;61.90;;;;;;4941160;28;20035;-75
2023/09/03 10:53:09;;;;;;;20.98;17.63;;;26.10;63.20;;;;;;4939872;28;20057;-75
2023/09/03 10:55:35;;;;;;;17.55;15.45;;;26.10;63.50;;;;;;4940285;28;20015;-75
2023/09/03 10:58:17;;;;;;;20.67;18.48;;;26.30;64.10;;;;;;4943621;28;20469;-75
2023/09/03 11:01:19;;;;;;;22.35;19.95;;;26.40;64.20;;;;;;4943325;28;20509;-76
2023/09/03 11:03:48;;;;;;;20.23;16.50;;;26.30;63.30;;;;;;4938298;28;20520;-75
2023/09/03 11:06:19;;;;;;;19.05;15.35;;;26.60;62.70;;;;;;4942370;28;20037;-75
2023/09/03 11:08:46;;;;;;;15.70;13.90;;;26.60;61.90;;;;;;4938182;28;20126;-75
2023/09/03 11:11:19;;;;;;;17.70;15.20;;;26.80;61.10;;;;;;4940996;28;20567;-75
2023/09/03 11:13:52;;;;;;;14.98;11.95;;;26.80;60.90;;;;;;4939327;28;20482;-76
2023/09/03 11:16:26;;;;;;;13.95;11.27;;;26.90;61.10;;;;;;4943324;28;20030;-76
2023/09/03 11:18:51;;;;;;;15.75;12.85;;;26.90;59.70;;;;;;4945747;28;20090;-75
2023/09/03 11:21:17;;;;;;;16.75;13.75;;;26.70;59.70;;;;;;4939075;28;20049;-74
2023/09/03 11:24:02;;;;;;;16.42;13.15;;;26.70;60.60;;;;;;4938830;28;20130;-74
2023/09/03 11:26:29;;;;;;;15.48;12.18;;;26.70;59.60;;;;;;4941671;28;20054;-75
2023/09/03 11:28:54;;;;;;;13.77;11.95;;;27.00;59.50;;;;;;4941299;28;20122;-74
2023/09/03 11:31:20;;;;;;;16.35;13.57;;;26.70;60.80;;;;;;4941297;28;20111;-74
2023/09/03 11:33:46;;;;;;;15.82;12.68;;;27.00;59.70;;;;;;4940782;28;20039;-73
2023/09/03 11:36:12;;;;;;;14.35;11.60;;;27.00;60.20;;;;;;4934295;28;20488;-74
2023/09/03 11:38:38;;;;;;;14.85;12.55;;;27.00;59.80;;;;;;4950101;28;21727;-74
2023/09/03 11:41:04;;;;;;;17.23;14.48;;;26.80;59.50;;;;;;4949420;28;20589;-72
2023/09/03 11:43:34;;;;;;;13.98;11.68;;;26.90;58.60;;;;;;4942265;28;20040;-75
2023/09/03 11:46:01;;;;;;;12.25;9.95;;;26.70;59.50;;;;;;4942955;28;20485;-77
2023/09/03 11:48:30;;;;;;;12.55;9.57;;;26.80;59.80;;;;;;4943160;28;20100;-75
2023/09/03 11:50:56;;;;;;;15.07;11.88;;;27.00;58.80;;;;;;4945567;28;20035;-74
2023/09/03 11:53:24;;;;;;;13.85;11.45;;;27.00;59.40;;;;;;4946513;28;20035;-76
2023/09/03 11:55:59;;;;;;;13.38;10.20;;;27.10;59.80;;;;;;4943965;28;20030;-75
2023/09/03 11:58:27;;;;;;;15.00;12.63;;;26.90;59.70;;;;;;4949067;28;20686;-75
2023/09/03 12:00:54;;;;;;;15.43;11.45;;;26.70;59.70;;;;;;4941269;28;20031;-76
2023/09/03 12:03:21;;;;;;;15.20;11.63;;;26.90;59.50;;;;;;4941802;28;20182;-76
2023/09/03 12:05:47;;;;;;;15.23;12.05;;;26.90;59.20;;;;;;4937140;28;20036;-75
2023/09/03 12:08:13;;;;;;;13.40;10.75;;;26.70;60.00;;;;;;4943818;28;20058;-75
2023/09/03 12:10:38;;;;;;;12.82;10.50;;;26.60;60.10;;;;;;4948095;28;20066;-75
2023/09/03 12:13:04;;;;;;;14.38;11.57;;;26.70;61.00;;;;;;4941188;28;20039;-74
2023/09/03 12:15:31;;;;;;;13.65;10.82;;;26.80;60.40;;;;;;4943548;28;20050;-75
2023/09/03 12:18:17;;;;;;;13.07;10.35;;;26.80;60.30;;;;;;4939262;28;20031;-76
2023/09/03 12:20:45;;;;;;;11.70;9.48;;;27.00;59.00;;;;;;4953073;28;20399;-78
2023/09/03 12:23:16;;;;;;;12.80;10.45;;;26.90;59.30;;;;;;4939531;28;20035;-75
2023/09/03 12:25:43;;;;;;;12.02;9.90;;;26.90;58.50;;;;;;4940960;28;20043;-77
2023/09/03 12:28:09;;;;;;;13.25;10.57;;;27.00;58.90;;;;;;4941068;28;20101;-76
2023/09/03 12:30:58;;;;;;;10.52;9.10;;;27.00;58.40;;;;;;4937589;28;20035;-76
2023/09/03 12:33:26;;;;;;;11.00;9.70;;;27.10;59.50;;;;;;4930627;28;20023;-76